sensor_id;sensor_type;location;lat;lon;timestamp;P1;durP1;ratioP1;P2;durP2;ratioP2
34234;SDS011;20500;49.856;20.290;2024-01-11T00:00:41;141.30;;;61.30;;
34234;SDS011;20500;49.856;20.290;2024-01-11T00:03:48;127.00;;;56.30;;
34234;SDS011;20500;49.856;20.290;2024-01-11T00:06:54;126.60;;;61.70;;
34234;SDS011;20500;49.856;20.290;2024-01-11T00:10:01;123.60;;;56.90;;
34234;SDS011;20500;49.856;20.290;2024-01-11T00:13:08;144.50;;;64.00;;
34234;SDS011;20500;49.856;20.290;2024-01-11T00:16:15;130.60;;;62.30;;
34234;SDS011;20500;49.856;20.290;2024-01-11T00:19:21;140.40;;;64.50;;
34234;SDS011;20500;49.856;20.290;2024-01-11T00:22:27;142.70;;;65.90;;
34234;SDS011;20500;49.856;20.290;2024-01-11T00:25:35;167.10;;;78.60;;
34234;SDS011;20500;49.856;20.290;2024-01-11T00:28:41;155.60;;;69.10;;
34234;SDS011;20500;49.856;20.290;2024-01-11T00:31:48;151.40;;;68.10;;
34234;SDS011;20500;49.856;20.290;2024-01-11T00:34:54;154.60;;;70.80;;
34234;SDS011;20500;49.856;20.290;2024-01-11T00:38:01;152.20;;;66.40;;
34234;SDS011;20500;49.856;20.290;2024-01-11T00:41:07;144.80;;;64.70;;
34234;SDS011;20500;49.856;20.290;2024-01-11T00:44:14;138.40;;;63.50;;
34234;SDS011;20500;49.856;20.290;2024-01-11T00:47:20;135.30;;;62.70;;
34234;SDS011;20500;49.856;20.290;2024-01-11T00:50:27;143.80;;;65.00;;
34234;SDS011;20500;49.856;20.290;2024-01-11T00:53:33;152.10;;;69.20;;
34234;SDS011;20500;49.856;20.290;2024-01-11T00:56:40;149.60;;;66.40;;
34234;SDS011;20500;49.856;20.290;2024-01-11T00:59:46;142.30;;;67.40;;
34234;SDS011;20500;49.856;20.290;2024-01-11T01:02:53;141.70;;;62.40;;
34234;SDS011;20500;49.856;20.290;2024-01-11T01:05:59;144.00;;;63.90;;
34234;SDS011;20500;49.856;20.290;2024-01-11T01:09:06;142.50;;;63.70;;
34234;SDS011;20500;49.856;20.290;2024-01-11T01:12:13;146.50;;;67.70;;
34234;SDS011;20500;49.856;20.290;2024-01-11T01:15:19;157.30;;;70.60;;
34234;SDS011;20500;49.856;20.290;2024-01-11T01:18:26;159.80;;;67.70;;
34234;SDS011;20500;49.856;20.290;2024-01-11T01:21:32;158.00;;;68.30;;
34234;SDS011;20500;49.856;20.290;2024-01-11T01:24:39;149.80;;;65.90;;
34234;SDS011;20500;49.856;20.290;2024-01-11T01:27:45;149.80;;;66.10;;
34234;SDS011;20500;49.856;20.290;2024-01-11T01:30:52;148.50;;;64.20;;
34234;SDS011;20500;49.856;20.290;2024-01-11T01:33:59;136.90;;;64.20;;
34234;SDS011;20500;49.856;20.290;2024-01-11T01:37:05;136.10;;;61.00;;
34234;SDS011;20500;49.856;20.290;2024-01-11T01:40:12;140.60;;;63.90;;
34234;SDS011;20500;49.856;20.290;2024-01-11T01:43:18;131.90;;;61.30;;
34234;SDS011;20500;49.856;20.290;2024-01-11T01:46:25;133.40;;;59.20;;
34234;SDS011;20500;49.856;20.290;2024-01-11T01:49:32;125.10;;;60.20;;
34234;SDS011;20500;49.856;20.290;2024-01-11T01:52:40;131.40;;;57.40;;
34234;SDS011;20500;49.856;20.290;2024-01-11T01:55:48;118.20;;;55.50;;
34234;SDS011;20500;49.856;20.290;2024-01-11T01:58:56;130.60;;;59.30;;
34234;SDS011;20500;49.856;20.290;2024-01-11T02:02:05;132.80;;;57.30;;
34234;SDS011;20500;49.856;20.290;2024-01-11T02:05:13;125.20;;;56.50;;
34234;SDS011;20500;49.856;20.290;2024-01-11T02:08:21;127.00;;;60.60;;
34234;SDS011;20500;49.856;20.290;2024-01-11T02:11:30;125.60;;;58.20;;
34234;SDS011;20500;49.856;20.290;2024-01-11T02:14:37;133.40;;;59.70;;
34234;SDS011;20500;49.856;20.290;2024-01-11T02:17:43;135.50;;;58.20;;
34234;SDS011;20500;49.856;20.290;2024-01-11T02:20:50;125.00;;;57.20;;
34234;SDS011;20500;49.856;20.290;2024-01-11T02:24:06;129.40;;;56.30;;
34234;SDS011;20500;49.856;20.290;2024-01-11T02:27:14;123.70;;;53.30;;
34234;SDS011;20500;49.856;20.290;2024-01-11T02:30:20;111.00;;;52.10;;
34234;SDS011;20500;49.856;20.290;2024-01-11T02:33:27;112.90;;;50.20;;
34234;SDS011;20500;49.856;20.290;2024-01-11T02:36:33;110.70;;;50.50;;
34234;SDS011;20500;49.856;20.290;2024-01-11T02:39:40;116.90;;;50.40;;
34234;SDS011;20500;49.856;20.290;2024-01-11T02:42:46;113.10;;;50.10;;
34234;SDS011;20500;49.856;20.290;2024-01-11T02:45:55;109.20;;;48.90;;
34234;SDS011;20500;49.856;20.290;2024-01-11T02:49:02;110.40;;;51.30;;
34234;SDS011;20500;49.856;20.290;2024-01-11T02:52:09;109.10;;;49.80;;
34234;SDS011;20500;49.856;20.290;2024-01-11T02:55:15;111.10;;;48.10;;
34234;SDS011;20500;49.856;20.290;2024-01-11T02:58:22;118.50;;;51.70;;
34234;SDS011;20500;49.856;20.290;2024-01-11T03:01:28;107.70;;;48.70;;
34234;SDS011;20500;49.856;20.290;2024-01-11T03:04:35;116.00;;;49.30;;
34234;SDS011;20500;49.856;20.290;2024-01-11T03:07:42;102.50;;;48.30;;
34234;SDS011;20500;49.856;20.290;2024-01-11T03:10:48;111.70;;;49.10;;
34234;SDS011;20500;49.856;20.290;2024-01-11T03:13:55;101.60;;;44.30;;
34234;SDS011;20500;49.856;20.290;2024-01-11T03:17:01;88.00;;;42.80;;
34234;SDS011;20500;49.856;20.290;2024-01-11T03:20:09;115.00;;;48.70;;
34234;SDS011;20500;49.856;20.290;2024-01-11T03:23:16;109.60;;;49.70;;
34234;SDS011;20500;49.856;20.290;2024-01-11T03:26:22;108.50;;;45.90;;
34234;SDS011;20500;49.856;20.290;2024-01-11T03:29:29;92.30;;;42.50;;
34234;SDS011;20500;49.856;20.290;2024-01-11T03:32:35;86.90;;;42.00;;
34234;SDS011;20500;49.856;20.290;2024-01-11T03:35:43;91.50;;;38.30;;
34234;SDS011;20500;49.856;20.290;2024-01-11T03:38:50;85.90;;;40.10;;
34234;SDS011;20500;49.856;20.290;2024-01-11T03:41:56;83.30;;;38.40;;
34234;SDS011;20500;49.856;20.290;2024-01-11T03:45:03;81.00;;;38.20;;
34234;SDS011;20500;49.856;20.290;2024-01-11T03:48:10;75.90;;;37.90;;
34234;SDS011;20500;49.856;20.290;2024-01-11T03:51:17;80.30;;;36.30;;
34234;SDS011;20500;49.856;20.290;2024-01-11T03:54:23;87.30;;;38.40;;
34234;SDS011;20500;49.856;20.290;2024-01-11T03:57:30;93.70;;;44.90;;
34234;SDS011;20500;49.856;20.290;2024-01-11T04:00:36;99.20;;;46.20;;
34234;SDS011;20500;49.856;20.290;2024-01-11T04:03:42;112.50;;;49.90;;
34234;SDS011;20500;49.856;20.290;2024-01-11T04:06:49;134.20;;;59.90;;
34234;SDS011;20500;49.856;20.290;2024-01-11T04:09:55;133.90;;;62.30;;
34234;SDS011;20500;49.856;20.290;2024-01-11T04:13:02;128.50;;;58.20;;
34234;SDS011;20500;49.856;20.290;2024-01-11T04:16:10;140.20;;;62.50;;
34234;SDS011;20500;49.856;20.290;2024-01-11T04:19:17;134.50;;;61.60;;
34234;SDS011;20500;49.856;20.290;2024-01-11T04:22:26;131.60;;;58.60;;
34234;SDS011;20500;49.856;20.290;2024-01-11T04:25:33;131.00;;;61.00;;
34234;SDS011;20500;49.856;20.290;2024-01-11T04:28:41;134.10;;;61.90;;
34234;SDS011;20500;49.856;20.290;2024-01-11T04:31:47;130.00;;;58.90;;
34234;SDS011;20500;49.856;20.290;2024-01-11T04:34:54;124.80;;;58.60;;
34234;SDS011;20500;49.856;20.290;2024-01-11T04:38:00;106.70;;;47.40;;
34234;SDS011;20500;49.856;20.290;2024-01-11T04:41:08;94.90;;;43.80;;
34234;SDS011;20500;49.856;20.290;2024-01-11T04:44:15;93.40;;;42.20;;
34234;SDS011;20500;49.856;20.290;2024-01-11T04:47:22;90.40;;;43.90;;
34234;SDS011;20500;49.856;20.290;2024-01-11T04:50:29;97.00;;;42.20;;
34234;SDS011;20500;49.856;20.290;2024-01-11T04:53:37;88.70;;;41.80;;
34234;SDS011;20500;49.856;20.290;2024-01-11T04:56:44;100.20;;;41.40;;
34234;SDS011;20500;49.856;20.290;2024-01-11T04:59:51;79.30;;;38.70;;
34234;SDS011;20500;49.856;20.290;2024-01-11T05:02:57;88.80;;;41.40;;
34234;SDS011;20500;49.856;20.290;2024-01-11T05:06:04;92.20;;;41.80;;
34234;SDS011;20500;49.856;20.290;2024-01-11T05:09:11;95.80;;;47.70;;
34234;SDS011;20500;49.856;20.290;2024-01-11T05:12:18;104.90;;;47.40;;
34234;SDS011;20500;49.856;20.290;2024-01-11T05:15:24;103.40;;;47.10;;
34234;SDS011;20500;49.856;20.290;2024-01-11T05:18:31;93.70;;;43.20;;
34234;SDS011;20500;49.856;20.290;2024-01-11T05:21:37;96.40;;;43.50;;
34234;SDS011;20500;49.856;20.290;2024-01-11T05:24:44;94.10;;;43.70;;
34234;SDS011;20500;49.856;20.290;2024-01-11T05:27:50;96.20;;;43.20;;
34234;SDS011;20500;49.856;20.290;2024-01-11T05:30:57;86.00;;;41.40;;
34234;SDS011;20500;49.856;20.290;2024-01-11T05:34:03;83.70;;;38.30;;
34234;SDS011;20500;49.856;20.290;2024-01-11T05:37:10;78.10;;;39.40;;
34234;SDS011;20500;49.856;20.290;2024-01-11T05:40:16;84.20;;;38.90;;
34234;SDS011;20500;49.856;20.290;2024-01-11T05:43:23;81.70;;;41.20;;
34234;SDS011;20500;49.856;20.290;2024-01-11T05:46:29;85.30;;;41.20;;
34234;SDS011;20500;49.856;20.290;2024-01-11T05:49:36;86.60;;;41.30;;
34234;SDS011;20500;49.856;20.290;2024-01-11T05:52:42;96.80;;;44.10;;
34234;SDS011;20500;49.856;20.290;2024-01-11T05:55:49;94.00;;;44.10;;
34234;SDS011;20500;49.856;20.290;2024-01-11T05:58:57;84.80;;;41.60;;
34234;SDS011;20500;49.856;20.290;2024-01-11T06:02:04;94.50;;;44.10;;
34234;SDS011;20500;49.856;20.290;2024-01-11T06:05:10;79.60;;;39.50;;
34234;SDS011;20500;49.856;20.290;2024-01-11T06:08:17;89.70;;;41.80;;
34234;SDS011;20500;49.856;20.290;2024-01-11T06:11:23;94.40;;;45.10;;
34234;SDS011;20500;49.856;20.290;2024-01-11T06:14:29;92.60;;;44.90;;
34234;SDS011;20500;49.856;20.290;2024-01-11T06:17:36;102.90;;;47.50;;
34234;SDS011;20500;49.856;20.290;2024-01-11T06:20:43;105.80;;;51.50;;
34234;SDS011;20500;49.856;20.290;2024-01-11T06:23:50;115.30;;;53.50;;
34234;SDS011;20500;49.856;20.290;2024-01-11T06:26:56;100.60;;;48.00;;
34234;SDS011;20500;49.856;20.290;2024-01-11T06:30:03;99.90;;;44.30;;
34234;SDS011;20500;49.856;20.290;2024-01-11T06:33:11;88.60;;;42.90;;
34234;SDS011;20500;49.856;20.290;2024-01-11T06:36:18;94.40;;;42.80;;
34234;SDS011;20500;49.856;20.290;2024-01-11T06:39:25;96.60;;;47.60;;
34234;SDS011;20500;49.856;20.290;2024-01-11T06:42:32;92.10;;;45.30;;
34234;SDS011;20500;49.856;20.290;2024-01-11T06:45:39;77.10;;;34.50;;
34234;SDS011;20500;49.856;20.290;2024-01-11T06:48:47;65.50;;;32.90;;
34234;SDS011;20500;49.856;20.290;2024-01-11T06:51:53;70.50;;;35.00;;
34234;SDS011;20500;49.856;20.290;2024-01-11T06:55:00;75.60;;;36.70;;
34234;SDS011;20500;49.856;20.290;2024-01-11T06:58:06;85.50;;;38.20;;
34234;SDS011;20500;49.856;20.290;2024-01-11T07:01:12;76.60;;;36.50;;
34234;SDS011;20500;49.856;20.290;2024-01-11T07:04:19;78.40;;;37.10;;
34234;SDS011;20500;49.856;20.290;2024-01-11T07:07:25;74.30;;;35.20;;
34234;SDS011;20500;49.856;20.290;2024-01-11T07:10:32;70.70;;;35.40;;
34234;SDS011;20500;49.856;20.290;2024-01-11T07:13:38;76.20;;;36.90;;
34234;SDS011;20500;49.856;20.290;2024-01-11T07:16:45;80.20;;;37.70;;
34234;SDS011;20500;49.856;20.290;2024-01-11T07:19:52;83.40;;;38.50;;
34234;SDS011;20500;49.856;20.290;2024-01-11T07:22:59;85.00;;;40.00;;
34234;SDS011;20500;49.856;20.290;2024-01-11T07:26:05;85.00;;;42.10;;
34234;SDS011;20500;49.856;20.290;2024-01-11T07:29:12;100.30;;;45.60;;
34234;SDS011;20500;49.856;20.290;2024-01-11T07:32:18;92.50;;;42.90;;
34234;SDS011;20500;49.856;20.290;2024-01-11T07:35:25;93.80;;;42.30;;
34234;SDS011;20500;49.856;20.290;2024-01-11T07:38:31;85.60;;;41.90;;
34234;SDS011;20500;49.856;20.290;2024-01-11T07:41:37;83.20;;;40.80;;
34234;SDS011;20500;49.856;20.290;2024-01-11T07:44:45;81.10;;;40.00;;
34234;SDS011;20500;49.856;20.290;2024-01-11T07:47:51;86.10;;;40.60;;
34234;SDS011;20500;49.856;20.290;2024-01-11T07:50:58;74.20;;;39.30;;
34234;SDS011;20500;49.856;20.290;2024-01-11T07:54:05;87.40;;;41.10;;
34234;SDS011;20500;49.856;20.290;2024-01-11T07:57:12;88.80;;;42.00;;
34234;SDS011;20500;49.856;20.290;2024-01-11T08:00:19;95.80;;;45.90;;
34234;SDS011;20500;49.856;20.290;2024-01-11T08:03:26;95.10;;;47.50;;
34234;SDS011;20500;49.856;20.290;2024-01-11T08:06:33;96.70;;;44.80;;
34234;SDS011;20500;49.856;20.290;2024-01-11T08:09:39;95.50;;;45.60;;
34234;SDS011;20500;49.856;20.290;2024-01-11T08:12:48;95.00;;;49.30;;
34234;SDS011;20500;49.856;20.290;2024-01-11T08:15:55;109.60;;;53.40;;
34234;SDS011;20500;49.856;20.290;2024-01-11T08:19:01;123.50;;;58.30;;
34234;SDS011;20500;49.856;20.290;2024-01-11T08:22:09;135.60;;;67.40;;
34234;SDS011;20500;49.856;20.290;2024-01-11T08:25:15;142.30;;;74.70;;
34234;SDS011;20500;49.856;20.290;2024-01-11T08:28:22;151.70;;;77.70;;
34234;SDS011;20500;49.856;20.290;2024-01-11T08:31:28;118.90;;;64.10;;
34234;SDS011;20500;49.856;20.290;2024-01-11T08:34:37;101.50;;;52.10;;
34234;SDS011;20500;49.856;20.290;2024-01-11T08:37:43;119.60;;;62.00;;
34234;SDS011;20500;49.856;20.290;2024-01-11T08:40:50;116.30;;;62.10;;
34234;SDS011;20500;49.856;20.290;2024-01-11T08:43:56;128.00;;;63.50;;
34234;SDS011;20500;49.856;20.290;2024-01-11T08:47:03;140.90;;;73.30;;
34234;SDS011;20500;49.856;20.290;2024-01-11T08:50:09;137.20;;;72.60;;
34234;SDS011;20500;49.856;20.290;2024-01-11T08:53:21;137.40;;;73.90;;
34234;SDS011;20500;49.856;20.290;2024-01-11T08:56:28;138.70;;;75.00;;
34234;SDS011;20500;49.856;20.290;2024-01-11T08:59:34;136.20;;;73.80;;
34234;SDS011;20500;49.856;20.290;2024-01-11T09:02:41;137.70;;;74.80;;
34234;SDS011;20500;49.856;20.290;2024-01-11T09:05:47;164.60;;;85.00;;
34234;SDS011;20500;49.856;20.290;2024-01-11T09:08:54;143.20;;;80.40;;
34234;SDS011;20500;49.856;20.290;2024-01-11T09:12:00;144.30;;;82.80;;
34234;SDS011;20500;49.856;20.290;2024-01-11T09:15:08;99.30;;;55.40;;
34234;SDS011;20500;49.856;20.290;2024-01-11T09:18:14;105.80;;;55.10;;
34234;SDS011;20500;49.856;20.290;2024-01-11T09:21:21;109.60;;;61.20;;
34234;SDS011;20500;49.856;20.290;2024-01-11T09:24:28;86.30;;;50.60;;
34234;SDS011;20500;49.856;20.290;2024-01-11T09:27:40;66.10;;;37.10;;
34234;SDS011;20500;49.856;20.290;2024-01-11T09:30:46;55.50;;;31.90;;
34234;SDS011;20500;49.856;20.290;2024-01-11T09:33:53;28.40;;;15.20;;
34234;SDS011;20500;49.856;20.290;2024-01-11T09:37:00;27.80;;;14.70;;
34234;SDS011;20500;49.856;20.290;2024-01-11T09:40:07;16.30;;;7.90;;
34234;SDS011;20500;49.856;20.290;2024-01-11T09:43:15;17.40;;;7.70;;
34234;SDS011;20500;49.856;20.290;2024-01-11T09:46:21;13.10;;;6.00;;
34234;SDS011;20500;49.856;20.290;2024-01-11T09:49:30;16.70;;;6.60;;
34234;SDS011;20500;49.856;20.290;2024-01-11T09:52:38;13.90;;;5.70;;
34234;SDS011;20500;49.856;20.290;2024-01-11T09:55:46;12.40;;;5.10;;
34234;SDS011;20500;49.856;20.290;2024-01-11T09:58:53;13.30;;;5.30;;
34234;SDS011;20500;49.856;20.290;2024-01-11T10:01:59;12.70;;;5.20;;
34234;SDS011;20500;49.856;20.290;2024-01-11T10:05:11;12.80;;;4.60;;
34234;SDS011;20500;49.856;20.290;2024-01-11T10:08:18;12.90;;;5.00;;
34234;SDS011;20500;49.856;20.290;2024-01-11T10:11:26;11.80;;;4.60;;
34234;SDS011;20500;49.856;20.290;2024-01-11T10:14:32;12.60;;;5.10;;
34234;SDS011;20500;49.856;20.290;2024-01-11T10:17:42;12.00;;;5.10;;
34234;SDS011;20500;49.856;20.290;2024-01-11T10:20:49;14.30;;;5.50;;
34234;SDS011;20500;49.856;20.290;2024-01-11T10:23:56;12.40;;;5.30;;
34234;SDS011;20500;49.856;20.290;2024-01-11T10:27:07;14.20;;;5.40;;
34234;SDS011;20500;49.856;20.290;2024-01-11T10:30:15;12.90;;;5.50;;
34234;SDS011;20500;49.856;20.290;2024-01-11T10:33:23;12.90;;;5.20;;
34234;SDS011;20500;49.856;20.290;2024-01-11T10:36:31;13.20;;;5.60;;
34234;SDS011;20500;49.856;20.290;2024-01-11T10:39:38;14.00;;;5.50;;
34234;SDS011;20500;49.856;20.290;2024-01-11T10:42:49;14.00;;;5.80;;
34234;SDS011;20500;49.856;20.290;2024-01-11T10:45:56;17.10;;;6.90;;
34234;SDS011;20500;49.856;20.290;2024-01-11T10:49:07;14.80;;;6.30;;
34234;SDS011;20500;49.856;20.290;2024-01-11T10:52:16;13.80;;;6.10;;
34234;SDS011;20500;49.856;20.290;2024-01-11T10:55:33;13.90;;;5.90;;
34234;SDS011;20500;49.856;20.290;2024-01-11T10:58:41;14.40;;;6.40;;
34234;SDS011;20500;49.856;20.290;2024-01-11T11:01:49;15.60;;;7.10;;
34234;SDS011;20500;49.856;20.290;2024-01-11T11:04:59;14.30;;;6.40;;
34234;SDS011;20500;49.856;20.290;2024-01-11T11:08:07;15.40;;;7.10;;
34234;SDS011;20500;49.856;20.290;2024-01-11T11:11:16;15.70;;;7.00;;
34234;SDS011;20500;49.856;20.290;2024-01-11T11:14:23;18.20;;;8.10;;
34234;SDS011;20500;49.856;20.290;2024-01-11T11:17:32;16.50;;;7.20;;
34234;SDS011;20500;49.856;20.290;2024-01-11T11:20:39;16.40;;;7.40;;
34234;SDS011;20500;49.856;20.290;2024-01-11T11:23:46;14.90;;;7.20;;
34234;SDS011;20500;49.856;20.290;2024-01-11T11:26:53;14.60;;;6.90;;
34234;SDS011;20500;49.856;20.290;2024-01-11T11:30:00;16.10;;;7.60;;
34234;SDS011;20500;49.856;20.290;2024-01-11T11:33:11;15.90;;;6.70;;
34234;SDS011;20500;49.856;20.290;2024-01-11T11:36:22;14.50;;;6.20;;
34234;SDS011;20500;49.856;20.290;2024-01-11T11:39:34;14.90;;;6.60;;
34234;SDS011;20500;49.856;20.290;2024-01-11T11:42:41;15.20;;;6.30;;
34234;SDS011;20500;49.856;20.290;2024-01-11T11:45:48;15.20;;;6.90;;
34234;SDS011;20500;49.856;20.290;2024-01-11T11:48:56;14.80;;;6.40;;
34234;SDS011;20500;49.856;20.290;2024-01-11T11:52:03;12.80;;;5.40;;
34234;SDS011;20500;49.856;20.290;2024-01-11T11:55:10;13.90;;;5.90;;
34234;SDS011;20500;49.856;20.290;2024-01-11T11:58:18;23.40;;;9.20;;
34234;SDS011;20500;49.856;20.290;2024-01-11T12:01:24;63.50;;;40.00;;
34234;SDS011;20500;49.856;20.290;2024-01-11T12:04:31;107.10;;;70.00;;
34234;SDS011;20500;49.856;20.290;2024-01-11T12:07:37;57.20;;;34.80;;
34234;SDS011;20500;49.856;20.290;2024-01-11T12:10:44;49.10;;;32.00;;
34234;SDS011;20500;49.856;20.290;2024-01-11T12:13:50;21.90;;;12.90;;
34234;SDS011;20500;49.856;20.290;2024-01-11T12:17:01;20.70;;;12.90;;
34234;SDS011;20500;49.856;20.290;2024-01-11T12:20:09;89.80;;;57.20;;
34234;SDS011;20500;49.856;20.290;2024-01-11T12:23:17;49.00;;;32.90;;
34234;SDS011;20500;49.856;20.290;2024-01-11T12:26:24;87.70;;;54.10;;
34234;SDS011;20500;49.856;20.290;2024-01-11T12:29:30;53.60;;;32.80;;
34234;SDS011;20500;49.856;20.290;2024-01-11T12:32:51;91.60;;;59.10;;
34234;SDS011;20500;49.856;20.290;2024-01-11T12:35:58;17.30;;;9.80;;
34234;SDS011;20500;49.856;20.290;2024-01-11T12:42:09;75.70;;;68.80;;
34234;SDS011;20500;49.856;20.290;2024-01-11T12:45:17;34.80;;;28.70;;
34234;SDS011;20500;49.856;20.290;2024-01-11T12:48:23;28.20;;;19.20;;
34234;SDS011;20500;49.856;20.290;2024-01-11T12:51:30;19.40;;;10.20;;
34234;SDS011;20500;49.856;20.290;2024-01-11T12:54:40;24.30;;;15.80;;
34234;SDS011;20500;49.856;20.290;2024-01-11T12:57:47;38.70;;;28.00;;
34234;SDS011;20500;49.856;20.290;2024-01-11T13:00:54;19.80;;;11.10;;
34234;SDS011;20500;49.856;20.290;2024-01-11T13:04:00;24.00;;;14.00;;
34234;SDS011;20500;49.856;20.290;2024-01-11T13:07:07;25.50;;;16.00;;
34234;SDS011;20500;49.856;20.290;2024-01-11T13:10:15;20.80;;;11.90;;
34234;SDS011;20500;49.856;20.290;2024-01-11T13:13:22;17.30;;;9.60;;
34234;SDS011;20500;49.856;20.290;2024-01-11T13:16:29;18.70;;;12.70;;
34234;SDS011;20500;49.856;20.290;2024-01-11T13:19:36;34.30;;;28.20;;
34234;SDS011;20500;49.856;20.290;2024-01-11T13:22:42;16.20;;;10.00;;
34234;SDS011;20500;49.856;20.290;2024-01-11T13:25:49;22.00;;;14.50;;
34234;SDS011;20500;49.856;20.290;2024-01-11T13:28:56;26.40;;;19.80;;
34234;SDS011;20500;49.856;20.290;2024-01-11T13:32:03;20.90;;;15.40;;
34234;SDS011;20500;49.856;20.290;2024-01-11T13:35:09;17.00;;;9.50;;
34234;SDS011;20500;49.856;20.290;2024-01-11T13:38:17;43.20;;;37.40;;
34234;SDS011;20500;49.856;20.290;2024-01-11T13:41:27;50.80;;;42.20;;
34234;SDS011;20500;49.856;20.290;2024-01-11T13:44:33;29.80;;;22.00;;
34234;SDS011;20500;49.856;20.290;2024-01-11T13:47:40;35.50;;;24.50;;
34234;SDS011;20500;49.856;20.290;2024-01-11T13:50:47;18.30;;;10.40;;
34234;SDS011;20500;49.856;20.290;2024-01-11T13:53:53;21.90;;;12.80;;
34234;SDS011;20500;49.856;20.290;2024-01-11T13:57:00;22.70;;;14.10;;
34234;SDS011;20500;49.856;20.290;2024-01-11T14:00:09;44.30;;;33.60;;
34234;SDS011;20500;49.856;20.290;2024-01-11T14:03:17;34.30;;;24.80;;
34234;SDS011;20500;49.856;20.290;2024-01-11T14:06:23;24.20;;;15.00;;
34234;SDS011;20500;49.856;20.290;2024-01-11T14:09:30;20.80;;;9.80;;
34234;SDS011;20500;49.856;20.290;2024-01-11T14:12:36;51.50;;;39.40;;
34234;SDS011;20500;49.856;20.290;2024-01-11T14:15:43;17.90;;;9.60;;
34234;SDS011;20500;49.856;20.290;2024-01-11T14:18:51;24.60;;;14.50;;
34234;SDS011;20500;49.856;20.290;2024-01-11T14:21:58;20.20;;;11.40;;
34234;SDS011;20500;49.856;20.290;2024-01-11T14:25:05;27.80;;;15.80;;
34234;SDS011;20500;49.856;20.290;2024-01-11T14:28:14;28.70;;;17.20;;
34234;SDS011;20500;49.856;20.290;2024-01-11T14:31:21;33.50;;;21.20;;
34234;SDS011;20500;49.856;20.290;2024-01-11T14:34:27;30.20;;;17.00;;
34234;SDS011;20500;49.856;20.290;2024-01-11T14:37:34;22.40;;;11.80;;
34234;SDS011;20500;49.856;20.290;2024-01-11T14:40:42;26.50;;;13.00;;
34234;SDS011;20500;49.856;20.290;2024-01-11T14:43:49;123.80;;;83.60;;
34234;SDS011;20500;49.856;20.290;2024-01-11T14:46:57;35.40;;;19.80;;
34234;SDS011;20500;49.856;20.290;2024-01-11T14:50:06;35.10;;;22.10;;
34234;SDS011;20500;49.856;20.290;2024-01-11T14:53:14;50.10;;;34.30;;
34234;SDS011;20500;49.856;20.290;2024-01-11T14:56:21;30.30;;;19.10;;
34234;SDS011;20500;49.856;20.290;2024-01-11T14:59:28;27.60;;;16.70;;
34234;SDS011;20500;49.856;20.290;2024-01-11T15:02:35;26.60;;;15.20;;
34234;SDS011;20500;49.856;20.290;2024-01-11T15:05:41;23.60;;;13.20;;
34234;SDS011;20500;49.856;20.290;2024-01-11T15:08:49;32.60;;;20.70;;
34234;SDS011;20500;49.856;20.290;2024-01-11T15:11:55;35.10;;;21.00;;
34234;SDS011;20500;49.856;20.290;2024-01-11T15:15:03;41.40;;;20.60;;
34234;SDS011;20500;49.856;20.290;2024-01-11T15:18:12;44.60;;;27.90;;
34234;SDS011;20500;49.856;20.290;2024-01-11T15:21:19;33.70;;;17.80;;
34234;SDS011;20500;49.856;20.290;2024-01-11T15:24:25;34.70;;;22.00;;
34234;SDS011;20500;49.856;20.290;2024-01-11T15:27:33;37.30;;;23.10;;
34234;SDS011;20500;49.856;20.290;2024-01-11T15:30:40;44.10;;;30.20;;
34234;SDS011;20500;49.856;20.290;2024-01-11T15:33:46;40.10;;;22.70;;
34234;SDS011;20500;49.856;20.290;2024-01-11T15:36:53;42.40;;;25.10;;
34234;SDS011;20500;49.856;20.290;2024-01-11T15:40:00;35.90;;;22.10;;
34234;SDS011;20500;49.856;20.290;2024-01-11T15:43:07;47.70;;;30.60;;
34234;SDS011;20500;49.856;20.290;2024-01-11T15:49:18;70.20;;;49.80;;
34234;SDS011;20500;49.856;20.290;2024-01-11T15:52:24;49.80;;;32.00;;
34234;SDS011;20500;49.856;20.290;2024-01-11T15:55:30;51.80;;;31.70;;
34234;SDS011;20500;49.856;20.290;2024-01-11T15:58:37;54.90;;;33.20;;
34234;SDS011;20500;49.856;20.290;2024-01-11T16:01:43;63.20;;;43.00;;
34234;SDS011;20500;49.856;20.290;2024-01-11T16:05:06;41.00;;;24.00;;
34234;SDS011;20500;49.856;20.290;2024-01-11T16:08:14;60.60;;;42.90;;
34234;SDS011;20500;49.856;20.290;2024-01-11T16:11:20;68.20;;;45.10;;
34234;SDS011;20500;49.856;20.290;2024-01-11T16:14:28;41.80;;;26.80;;
34234;SDS011;20500;49.856;20.290;2024-01-11T16:17:34;109.20;;;71.80;;
34234;SDS011;20500;49.856;20.290;2024-01-11T16:20:41;69.40;;;46.80;;
34234;SDS011;20500;49.856;20.290;2024-01-11T16:23:48;46.30;;;27.60;;
34234;SDS011;20500;49.856;20.290;2024-01-11T16:26:55;55.00;;;33.90;;
34234;SDS011;20500;49.856;20.290;2024-01-11T16:30:03;83.10;;;52.20;;
34234;SDS011;20500;49.856;20.290;2024-01-11T16:33:11;127.60;;;80.10;;
34234;SDS011;20500;49.856;20.290;2024-01-11T16:36:17;69.80;;;43.90;;
34234;SDS011;20500;49.856;20.290;2024-01-11T16:39:24;77.50;;;48.20;;
34234;SDS011;20500;49.856;20.290;2024-01-11T16:45:36;50.70;;;30.10;;
34234;SDS011;20500;49.856;20.290;2024-01-11T16:48:43;171.20;;;89.70;;
34234;SDS011;20500;49.856;20.290;2024-01-11T16:51:50;69.50;;;39.90;;
34234;SDS011;20500;49.856;20.290;2024-01-11T16:54:56;100.70;;;59.50;;
34234;SDS011;20500;49.856;20.290;2024-01-11T16:58:03;48.00;;;28.80;;
34234;SDS011;20500;49.856;20.290;2024-01-11T17:01:10;60.00;;;37.40;;
34234;SDS011;20500;49.856;20.290;2024-01-11T17:04:16;53.10;;;34.70;;
34234;SDS011;20500;49.856;20.290;2024-01-11T17:07:23;55.70;;;34.90;;
34234;SDS011;20500;49.856;20.290;2024-01-11T17:10:29;50.20;;;30.90;;
34234;SDS011;20500;49.856;20.290;2024-01-11T17:13:36;53.50;;;34.00;;
34234;SDS011;20500;49.856;20.290;2024-01-11T17:16:42;68.00;;;45.60;;
34234;SDS011;20500;49.856;20.290;2024-01-11T17:22:54;47.20;;;29.70;;
34234;SDS011;20500;49.856;20.290;2024-01-11T17:26:00;54.40;;;36.70;;
34234;SDS011;20500;49.856;20.290;2024-01-11T17:29:09;43.60;;;25.60;;
34234;SDS011;20500;49.856;20.290;2024-01-11T17:32:15;42.70;;;27.00;;
34234;SDS011;20500;49.856;20.290;2024-01-11T17:35:22;45.00;;;29.10;;
34234;SDS011;20500;49.856;20.290;2024-01-11T17:38:29;47.60;;;29.00;;
34234;SDS011;20500;49.856;20.290;2024-01-11T17:41:39;48.30;;;30.40;;
34234;SDS011;20500;49.856;20.290;2024-01-11T17:44:46;47.10;;;28.10;;
34234;SDS011;20500;49.856;20.290;2024-01-11T17:47:53;43.30;;;25.80;;
34234;SDS011;20500;49.856;20.290;2024-01-11T17:51:00;56.60;;;31.40;;
34234;SDS011;20500;49.856;20.290;2024-01-11T17:54:07;42.30;;;26.00;;
34234;SDS011;20500;49.856;20.290;2024-01-11T17:57:13;48.80;;;29.00;;
34234;SDS011;20500;49.856;20.290;2024-01-11T18:00:21;46.60;;;29.10;;
34234;SDS011;20500;49.856;20.290;2024-01-11T18:03:28;44.90;;;26.30;;
34234;SDS011;20500;49.856;20.290;2024-01-11T18:06:34;46.60;;;29.90;;